Goutum, Netherlands
Current Conditions -  °F | °C
As of 5:40 PM on Monday 24 Nov 2014 (Local Time) from EHLW Reporting Station
Few Clouds Few Clouds  
Wind Chill: 43°   Ceiling: Unl
Heat Index: 46°   Visibility: 6mi
Dew Point: 41°   Wind: 7mph
Humidity: 81%   Direction: 270°W
Pressure: 30.27"   Gusts: NA
Location:  53.18°N, 5.8°E
Report Text: EHLW 241640Z AUTO 27006KT 9999 FEW240 08/05 Q1025 BLU 27006KT CAVOK
Loading
Personal Weather Stations






























Interactive Weather Map New forecast layout! Learn more

10-Day Weather Forecast

Advertisements
Track Severe Weather on mobile